sensor_id;sensor_type;location;lat;lon;timestamp;pressure;altitude;pressure_sealevel;temperature;humidity
41222;BME280;26952;42.884;23.918;2023-01-30T00:01:22;96130.34;;;0.71;100.00
41222;BME280;26952;42.884;23.918;2023-01-30T00:03:48;96130.13;;;0.49;100.00
41222;BME280;26952;42.884;23.918;2023-01-30T00:06:14;96144.47;;;0.67;100.00
41222;BME280;26952;42.884;23.918;2023-01-30T00:08:39;96140.75;;;0.71;100.00
41222;BME280;26952;42.884;23.918;2023-01-30T00:11:06;96151.75;;;0.75;100.00
41222;BME280;26952;42.884;23.918;2023-01-30T00:13:32;96154.06;;;0.79;100.00
41222;BME280;26952;42.884;23.918;2023-01-30T00:15:58;96146.38;;;0.78;100.00
41222;BME280;26952;42.884;23.918;2023-01-30T00:18:24;96151.34;;;0.81;100.00
41222;BME280;26952;42.884;23.918;2023-01-30T00:21:00;96160.50;;;0.86;100.00
41222;BME280;26952;42.884;23.918;2023-01-30T00:23:27;96144.34;;;0.81;100.00
41222;BME280;26952;42.884;23.918;2023-01-30T00:25:52;96136.34;;;0.72;100.00
41222;BME280;26952;42.884;23.918;2023-01-30T00:28:18;96152.38;;;0.78;100.00
41222;BME280;26952;42.884;23.918;2023-01-30T00:30:43;96151.25;;;0.82;100.00
41222;BME280;26952;42.884;23.918;2023-01-30T00:33:09;96152.38;;;0.78;100.00
41222;BME280;26952;42.884;23.918;2023-01-30T00:35:35;96139.56;;;0.75;100.00
41222;BME280;26952;42.884;23.918;2023-01-30T00:38:00;96135.72;;;0.68;100.00
41222;BME280;26952;42.884;23.918;2023-01-30T00:40:27;96152.94;;;0.58;100.00
41222;BME280;26952;42.884;23.918;2023-01-30T00:42:53;96137.00;;;0.50;100.00
41222;BME280;26952;42.884;23.918;2023-01-30T00:45:45;96145.31;;;0.55;100.00
41222;BME280;26952;42.884;23.918;2023-01-30T00:48:30;96150.94;;;0.74;100.00
41222;BME280;26952;42.884;23.918;2023-01-30T00:50:56;96140.94;;;0.68;100.00
41222;BME280;26952;42.884;23.918;2023-01-30T00:53:21;96138.84;;;0.73;100.00
41222;BME280;26952;42.884;23.918;2023-01-30T00:55:46;96144.13;;;0.84;100.00
41222;BME280;26952;42.884;23.918;2023-01-30T00:58:14;96147.69;;;0.83;100.00
41222;BME280;26952;42.884;23.918;2023-01-30T01:00:39;96136.66;;;0.92;100.00
41222;BME280;26952;42.884;23.918;2023-01-30T01:03:05;96135.47;;;0.96;100.00
41222;BME280;26952;42.884;23.918;2023-01-30T01:05:30;96130.56;;;1.04;100.00
41222;BME280;26952;42.884;23.918;2023-01-30T01:07:56;96135.53;;;1.07;100.00
41222;BME280;26952;42.884;23.918;2023-01-30T01:10:21;96133.97;;;1.17;100.00
41222;BME280;26952;42.884;23.918;2023-01-30T01:12:48;96129.81;;;1.15;100.00
41222;BME280;26952;42.884;23.918;2023-01-30T01:15:14;96118.94;;;1.21;100.00
41222;BME280;26952;42.884;23.918;2023-01-30T01:17:40;96111.47;;;1.16;100.00
41222;BME280;26952;42.884;23.918;2023-01-30T01:20:07;96122.16;;;1.24;100.00
41222;BME280;26952;42.884;23.918;2023-01-30T01:22:33;96129.47;;;1.19;100.00
41222;BME280;26952;42.884;23.918;2023-01-30T01:24:58;96129.81;;;1.15;100.00
41222;BME280;26952;42.884;23.918;2023-01-30T01:27:24;96086.25;;;1.04;100.00
41222;BME280;26952;42.884;23.918;2023-01-30T01:29:49;96126.94;;;1.30;100.00
41222;BME280;26952;42.884;23.918;2023-01-30T01:32:14;96105.06;;;1.20;100.00
41222;BME280;26952;42.884;23.918;2023-01-30T01:34:40;96110.56;;;1.28;100.00
41222;BME280;26952;42.884;23.918;2023-01-30T01:37:05;96071.53;;;1.16;100.00
41222;BME280;26952;42.884;23.918;2023-01-30T01:39:31;96108.22;;;1.36;100.00
41222;BME280;26952;42.884;23.918;2023-01-30T01:42:16;96102.31;;;1.34;100.00
41222;BME280;26952;42.884;23.918;2023-01-30T01:45:02;96111.50;;;1.51;100.00
41222;BME280;26952;42.884;23.918;2023-01-30T01:47:29;96107.34;;;1.49;100.00
41222;BME280;26952;42.884;23.918;2023-01-30T01:49:55;96112.34;;;1.52;100.00
41222;BME280;26952;42.884;23.918;2023-01-30T01:52:21;96091.94;;;1.46;100.00
41222;BME280;26952;42.884;23.918;2023-01-30T01:54:59;96112.13;;;1.55;100.00
41222;BME280;26952;42.884;23.918;2023-01-30T01:57:32;96102.97;;;1.49;100.00
41222;BME280;26952;42.884;23.918;2023-01-30T02:00:13;96115.44;;;1.57;100.00
41222;BME280;26952;42.884;23.918;2023-01-30T02:02:40;96100.09;;;1.41;100.00
41222;BME280;26952;42.884;23.918;2023-01-30T02:05:07;96103.25;;;1.33;100.00
41222;BME280;26952;42.884;23.918;2023-01-30T02:07:46;96101.44;;;1.10;100.00
41222;BME280;26952;42.884;23.918;2023-01-30T02:10:18;96096.28;;;0.98;100.00
41222;BME280;26952;42.884;23.918;2023-01-30T02:12:44;96089.44;;;0.84;100.00
41222;BME280;26952;42.884;23.918;2023-01-30T02:15:11;96094.50;;;0.62;100.00
41222;BME280;26952;42.884;23.918;2023-01-30T02:17:36;96074.94;;;0.57;100.00
41222;BME280;26952;42.884;23.918;2023-01-30T02:20:17;96092.19;;;0.70;100.00
41222;BME280;26952;42.884;23.918;2023-01-30T02:30:59;96063.47;;;0.34;100.00
41222;BME280;26952;42.884;23.918;2023-01-30T02:36:22;96084.31;;;0.47;100.00
41222;BME280;26952;42.884;23.918;2023-01-30T02:49:30;96089.31;;;0.12;100.00
41222;BME280;26952;42.884;23.918;2023-01-30T02:51:57;96090.16;;;0.00;100.00
41222;BME280;26952;42.884;23.918;2023-01-30T02:54:24;96081.63;;;-0.02;100.00
41222;BME280;26952;42.884;23.918;2023-01-30T02:56:52;96079.66;;;0.02;100.00
41222;BME280;26952;42.884;23.918;2023-01-30T02:59:26;96092.44;;;0.17;100.00
41222;BME280;26952;42.884;23.918;2023-01-30T03:10:17;96078.09;;;0.24;100.00
41222;BME280;26952;42.884;23.918;2023-01-30T03:13:04;96092.03;;;0.36;100.00
41222;BME280;26952;42.884;23.918;2023-01-30T03:15:45;96093.59;;;0.38;100.00
41222;BME280;26952;42.884;23.918;2023-01-30T03:18:12;96069.25;;;0.14;100.00
41222;BME280;26952;42.884;23.918;2023-01-30T03:20:39;96068.50;;;-0.01;100.00
41222;BME280;26952;42.884;23.918;2023-01-30T03:23:06;96082.84;;;0.05;100.00
41222;BME280;26952;42.884;23.918;2023-01-30T03:25:32;96075.16;;;0.03;100.00
41222;BME280;26952;42.884;23.918;2023-01-30T03:28:01;96076.41;;;0.11;100.00
41222;BME280;26952;42.884;23.918;2023-01-30T03:30:28;96073.72;;;0.12;100.00
41222;BME280;26952;42.884;23.918;2023-01-30T03:32:53;96076.19;;;0.26;100.00
41222;BME280;26952;42.884;23.918;2023-01-30T03:35:19;96076.59;;;0.33;100.00
41222;BME280;26952;42.884;23.918;2023-01-30T03:37:45;96063.00;;;0.29;100.00
41222;BME280;26952;42.884;23.918;2023-01-30T03:40:12;96071.59;;;0.42;100.00
41222;BME280;26952;42.884;23.918;2023-01-30T03:42:39;96056.41;;;0.36;100.00
41222;BME280;26952;42.884;23.918;2023-01-30T03:45:05;96070.91;;;0.40;100.00
41222;BME280;26952;42.884;23.918;2023-01-30T03:47:30;96073.72;;;0.37;100.00
41222;BME280;26952;42.884;23.918;2023-01-30T03:49:56;96058.81;;;0.27;100.00
41222;BME280;26952;42.884;23.918;2023-01-30T03:52:21;96067.66;;;0.12;100.00
41222;BME280;26952;42.884;23.918;2023-01-30T03:54:46;96064.78;;;0.16;100.00
41222;BME280;26952;42.884;23.918;2023-01-30T03:57:12;96068.28;;;0.15;100.00
41222;BME280;26952;42.884;23.918;2023-01-30T03:59:37;96051.03;;;0.02;100.00
41222;BME280;26952;42.884;23.918;2023-01-30T04:02:03;96068.09;;;0.06;100.00
41222;BME280;26952;42.884;23.918;2023-01-30T04:04:28;96047.69;;;-0.01;100.00
41222;BME280;26952;42.884;23.918;2023-01-30T04:06:54;96045.69;;;-0.10;100.00
41222;BME280;26952;42.884;23.918;2023-01-30T04:09:19;96038.94;;;-0.12;100.00
41222;BME280;26952;42.884;23.918;2023-01-30T04:11:44;96049.56;;;-0.15;100.00
41222;BME280;26952;42.884;23.918;2023-01-30T04:14:10;96045.59;;;-0.21;100.00
41222;BME280;26952;42.884;23.918;2023-01-30T04:16:35;96030.94;;;-0.34;100.00
41222;BME280;26952;42.884;23.918;2023-01-30T04:19:01;96033.72;;;-0.37;100.00
41222;BME280;26952;42.884;23.918;2023-01-30T04:21:26;96042.47;;;-0.38;100.00
41222;BME280;26952;42.884;23.918;2023-01-30T04:23:51;96035.28;;;-0.47;100.00
41222;BME280;26952;42.884;23.918;2023-01-30T04:26:17;96027.25;;;-0.57;100.00
41222;BME280;26952;42.884;23.918;2023-01-30T04:28:42;96030.81;;;-0.45;100.00
41222;BME280;26952;42.884;23.918;2023-01-30T04:31:09;96031.13;;;-0.37;100.00
41222;BME280;26952;42.884;23.918;2023-01-30T04:33:35;96032.38;;;-0.30;100.00
41222;BME280;26952;42.884;23.918;2023-01-30T04:36:02;96055.50;;;-0.13;100.00
41222;BME280;26952;42.884;23.918;2023-01-30T04:38:29;96049.25;;;-0.11;100.00
41222;BME280;26952;42.884;23.918;2023-01-30T04:40:56;96051.44;;;-0.17;100.00
41222;BME280;26952;42.884;23.918;2023-01-30T04:43:23;96037.91;;;-0.35;100.00
41222;BME280;26952;42.884;23.918;2023-01-30T04:45:49;96046.22;;;-0.30;100.00
41222;BME280;26952;42.884;23.918;2023-01-30T04:48:16;96036.75;;;-0.31;100.00
41222;BME280;26952;42.884;23.918;2023-01-30T04:50:43;96040.81;;;-0.27;100.00
41222;BME280;26952;42.884;23.918;2023-01-30T04:53:10;96038.13;;;-0.25;100.00
41222;BME280;26952;42.884;23.918;2023-01-30T04:55:35;96031.25;;;-0.26;100.00
41222;BME280;26952;42.884;23.918;2023-01-30T04:58:02;96036.84;;;-0.32;100.00
41222;BME280;26952;42.884;23.918;2023-01-30T05:00:27;96040.41;;;-0.33;100.00
41222;BME280;26952;42.884;23.918;2023-01-30T05:02:53;96049.31;;;-0.37;100.00
41222;BME280;26952;42.884;23.918;2023-01-30T05:05:21;96028.63;;;-0.39;100.00
41222;BME280;26952;42.884;23.918;2023-01-30T05:07:46;96035.28;;;-0.47;100.00
41222;BME280;26952;42.884;23.918;2023-01-30T05:10:12;96027.06;;;-0.41;100.00
41222;BME280;26952;42.884;23.918;2023-01-30T05:12:37;96040.59;;;-0.36;100.00
41222;BME280;26952;42.884;23.918;2023-01-30T05:15:03;96026.22;;;-0.42;100.00
41222;BME280;26952;42.884;23.918;2023-01-30T05:17:29;96027.81;;;-0.27;100.00
41222;BME280;26952;42.884;23.918;2023-01-30T05:19:54;96036.44;;;-0.39;100.00
41222;BME280;26952;42.884;23.918;2023-01-30T05:22:19;96030.81;;;-0.45;100.00
41222;BME280;26952;42.884;23.918;2023-01-30T05:24:45;96043.00;;;-0.33;100.00
41222;BME280;26952;42.884;23.918;2023-01-30T05:27:10;96020.41;;;-0.45;100.00
41222;BME280;26952;42.884;23.918;2023-01-30T05:29:36;96030.22;;;-0.36;100.00
41222;BME280;26952;42.884;23.918;2023-01-30T05:32:02;96034.34;;;-0.34;100.00
41222;BME280;26952;42.884;23.918;2023-01-30T05:34:28;96039.88;;;-0.38;100.00
41222;BME280;26952;42.884;23.918;2023-01-30T05:36:53;96038.81;;;-0.48;100.00
41222;BME280;26952;42.884;23.918;2023-01-30T05:39:18;96050.38;;;-0.40;100.00
41222;BME280;26952;42.884;23.918;2023-01-30T05:41:44;96044.31;;;-0.40;100.00
41222;BME280;26952;42.884;23.918;2023-01-30T05:44:09;96050.56;;;-0.43;100.00
41222;BME280;26952;42.884;23.918;2023-01-30T05:46:35;96047.25;;;-0.45;100.00
41222;BME280;26952;42.884;23.918;2023-01-30T05:49:00;96021.03;;;-0.54;100.00
41222;BME280;26952;42.884;23.918;2023-01-30T05:51:28;96053.41;;;-0.33;100.00
41222;BME280;26952;42.884;23.918;2023-01-30T05:53:54;96046.03;;;-0.27;100.00
41222;BME280;26952;42.884;23.918;2023-01-30T05:56:19;96051.53;;;-0.31;100.00
41222;BME280;26952;42.884;23.918;2023-01-30T05:58:55;96045.19;;;-0.27;100.00
41222;BME280;26952;42.884;23.918;2023-01-30T06:01:21;96028.94;;;-0.31;100.00
41222;BME280;26952;42.884;23.918;2023-01-30T06:03:47;96045.91;;;-0.13;100.00
41222;BME280;26952;42.884;23.918;2023-01-30T06:06:13;96043.72;;;-0.06;100.00
41222;BME280;26952;42.884;23.918;2023-01-30T06:08:39;96033.97;;;-0.15;100.00
41222;BME280;26952;42.884;23.918;2023-01-30T06:11:09;96045.59;;;-0.08;100.00
41222;BME280;26952;42.884;23.918;2023-01-30T06:13:36;96037.09;;;-0.10;100.00
41222;BME280;26952;42.884;23.918;2023-01-30T06:16:02;96051.00;;;-0.11;100.00
41222;BME280;26952;42.884;23.918;2023-01-30T06:18:27;96052.47;;;-0.07;100.00
41222;BME280;26952;42.884;23.918;2023-01-30T06:20:53;96041.78;;;-0.15;100.00
41222;BME280;26952;42.884;23.918;2023-01-30T06:23:20;96052.28;;;-0.04;100.00
41222;BME280;26952;42.884;23.918;2023-01-30T06:25:48;96045.09;;;-0.13;100.00
41222;BME280;26952;42.884;23.918;2023-01-30T06:28:15;96040.81;;;-0.14;100.00
41222;BME280;26952;42.884;23.918;2023-01-30T06:30:41;96061.94;;;-0.06;100.00
41222;BME280;26952;42.884;23.918;2023-01-30T06:33:07;96053.81;;;-0.14;100.00
41222;BME280;26952;42.884;23.918;2023-01-30T06:35:33;96063.59;;;-0.18;100.00
41222;BME280;26952;42.884;23.918;2023-01-30T06:37:58;96047.69;;;-0.26;100.00
41222;BME280;26952;42.884;23.918;2023-01-30T06:40:24;96050.91;;;-0.35;100.00
41222;BME280;26952;42.884;23.918;2023-01-30T06:42:50;96064.31;;;-0.28;100.00
41222;BME280;26952;42.884;23.918;2023-01-30T06:45:17;96010.72;;;-0.68;100.00
41222;BME280;26952;42.884;23.918;2023-01-30T06:47:53;96042.69;;;-0.41;100.00
41222;BME280;26952;42.884;23.918;2023-01-30T06:50:21;96051.09;;;-0.38;100.00
41222;BME280;26952;42.884;23.918;2023-01-30T06:52:48;96065.59;;;-0.21;100.00
41222;BME280;26952;42.884;23.918;2023-01-30T06:55:17;96060.19;;;-0.18;100.00
41222;BME280;26952;42.884;23.918;2023-01-30T06:57:43;96060.78;;;-0.15;100.00
41222;BME280;26952;42.884;23.918;2023-01-30T07:00:12;96060.41;;;-0.09;100.00
41222;BME280;26952;42.884;23.918;2023-01-30T07:02:38;96049.16;;;-0.09;100.00
41222;BME280;26952;42.884;23.918;2023-01-30T07:05:05;96052.47;;;-0.07;100.00
41222;BME280;26952;42.884;23.918;2023-01-30T07:07:31;96071.59;;;-0.08;100.00
41222;BME280;26952;42.884;23.918;2023-01-30T07:09:58;96066.31;;;-0.19;100.00
41222;BME280;26952;42.884;23.918;2023-01-30T07:12:24;96043.72;;;-0.31;100.00
41222;BME280;26952;42.884;23.918;2023-01-30T07:14:51;96075.56;;;-0.15;100.00
41222;BME280;26952;42.884;23.918;2023-01-30T07:17:17;96067.56;;;-0.12;100.00
41222;BME280;26952;42.884;23.918;2023-01-30T07:19:43;96062.25;;;-0.11;100.00
41222;BME280;26952;42.884;23.918;2023-01-30T07:22:09;96059.88;;;-0.14;100.00
41222;BME280;26952;42.884;23.918;2023-01-30T07:24:34;96060.28;;;-0.20;100.00
41222;BME280;26952;42.884;23.918;2023-01-30T07:27:00;96057.06;;;-0.11;100.00
41222;BME280;26952;42.884;23.918;2023-01-30T07:29:25;96048.72;;;-0.16;100.00
41222;BME280;26952;42.884;23.918;2023-01-30T07:31:51;96045.81;;;-0.11;100.00
41222;BME280;26952;42.884;23.918;2023-01-30T07:34:16;96059.75;;;0.00;100.00
41222;BME280;26952;42.884;23.918;2023-01-30T07:36:42;96067.06;;;0.08;100.00
41222;BME280;26952;42.884;23.918;2023-01-30T07:39:07;96067.88;;;0.21;100.00
41222;BME280;26952;42.884;23.918;2023-01-30T07:41:34;96043.13;;;0.16;100.00
41222;BME280;26952;42.884;23.918;2023-01-30T07:43:59;96052.06;;;0.24;100.00
41222;BME280;26952;42.884;23.918;2023-01-30T07:46:25;96051.63;;;0.30;100.00
41222;BME280;26952;42.884;23.918;2023-01-30T07:48:50;96060.69;;;0.37;100.00
41222;BME280;26952;42.884;23.918;2023-01-30T07:51:16;96051.81;;;0.40;100.00
41222;BME280;26952;42.884;23.918;2023-01-30T07:53:41;96048.38;;;0.39;100.00
41222;BME280;26952;42.884;23.918;2023-01-30T07:56:11;96045.38;;;0.45;100.00
41222;BME280;26952;42.884;23.918;2023-01-30T07:58:38;96043.69;;;0.57;100.00
41222;BME280;26952;42.884;23.918;2023-01-30T08:01:04;96043.88;;;0.66;100.00
41222;BME280;26952;42.884;23.918;2023-01-30T08:03:30;96033.28;;;0.80;100.00
41222;BME280;26952;42.884;23.918;2023-01-30T08:05:55;96025.75;;;0.88;100.00
41222;BME280;26952;42.884;23.918;2023-01-30T08:08:21;96030.63;;;0.93;100.00
41222;BME280;26952;42.884;23.918;2023-01-30T08:10:49;96032.91;;;0.97;100.00
41222;BME280;26952;42.884;23.918;2023-01-30T08:13:15;96029.16;;;1.01;100.00
41222;BME280;26952;42.884;23.918;2023-01-30T08:15:40;96021.09;;;1.04;100.00
41222;BME280;26952;42.884;23.918;2023-01-30T08:18:06;96025.44;;;0.93;100.00
41222;BME280;26952;42.884;23.918;2023-01-30T08:20:32;96016.28;;;0.87;100.00
41222;BME280;26952;42.884;23.918;2023-01-30T08:22:58;96031.03;;;0.99;100.00
41222;BME280;26952;42.884;23.918;2023-01-30T08:25:23;96019.88;;;0.97;100.00
41222;BME280;26952;42.884;23.918;2023-01-30T08:27:49;96025.38;;;1.05;100.00
41222;BME280;26952;42.884;23.918;2023-01-30T08:30:16;96016.91;;;1.14;100.00
41222;BME280;26952;42.884;23.918;2023-01-30T08:32:42;96027.25;;;1.27;100.00
41222;BME280;26952;42.884;23.918;2023-01-30T08:35:08;96027.19;;;1.39;100.00
41222;BME280;26952;42.884;23.918;2023-01-30T08:37:34;96012.03;;;1.44;100.00
41222;BME280;26952;42.884;23.918;2023-01-30T08:39:59;96011.00;;;1.58;100.00
41222;BME280;26952;42.884;23.918;2023-01-30T08:42:25;96015.91;;;1.74;100.00
41222;BME280;26952;42.884;23.918;2023-01-30T08:44:50;96018.13;;;1.67;100.00
41222;BME280;26952;42.884;23.918;2023-01-30T08:47:15;96022.41;;;1.57;100.00
41222;BME280;26952;42.884;23.918;2023-01-30T08:49:41;96008.00;;;1.40;100.00
41222;BME280;26952;42.884;23.918;2023-01-30T08:52:06;96002.63;;;1.31;100.00
41222;BME280;26952;42.884;23.918;2023-01-30T08:54:31;96018.97;;;1.33;100.00
41222;BME280;26952;42.884;23.918;2023-01-30T08:56:57;96001.78;;;1.30;100.00
41222;BME280;26952;42.884;23.918;2023-01-30T08:59:22;96004.41;;;1.30;100.00
41222;BME280;26952;42.884;23.918;2023-01-30T09:01:48;95992.97;;;1.20;100.00
41222;BME280;26952;42.884;23.918;2023-01-30T09:04:13;96003.63;;;1.17;100.00
41222;BME280;26952;42.884;23.918;2023-01-30T09:06:38;95994.47;;;1.12;100.00
41222;BME280;26952;42.884;23.918;2023-01-30T09:09:04;95998.19;;;1.20;100.00
41222;BME280;26952;42.884;23.918;2023-01-30T09:11:29;95992.38;;;1.17;100.00
41222;BME280;26952;42.884;23.918;2023-01-30T09:13:55;96002.47;;;1.21;100.00
41222;BME280;26952;42.884;23.918;2023-01-30T09:16:20;95996.53;;;1.19;100.00
41222;BME280;26952;42.884;23.918;2023-01-30T09:18:45;96008.16;;;1.26;100.00
41222;BME280;26952;42.884;23.918;2023-01-30T09:21:11;95999.41;;;1.27;100.00
41222;BME280;26952;42.884;23.918;2023-01-30T09:23:37;95990.66;;;1.28;100.00
41222;BME280;26952;42.884;23.918;2023-01-30T09:26:04;95960.94;;;1.07;100.00
41222;BME280;26952;42.884;23.918;2023-01-30T09:28:29;95973.25;;;1.05;100.00
41222;BME280;26952;42.884;23.918;2023-01-30T09:30:59;95984.63;;;1.28;100.00
41222;BME280;26952;42.884;23.918;2023-01-30T09:33:24;95991.63;;;1.38;100.00
41222;BME280;26952;42.884;23.918;2023-01-30T09:35:51;95989.75;;;1.40;100.00
41222;BME280;26952;42.884;23.918;2023-01-30T09:38:17;95980.94;;;1.30;100.00
41222;BME280;26952;42.884;23.918;2023-01-30T09:41:03;95943.66;;;1.06;100.00
41222;BME280;26952;42.884;23.918;2023-01-30T09:43:47;95982.97;;;1.38;100.00
41222;BME280;26952;42.884;23.918;2023-01-30T09:46:51;95965.09;;;1.44;100.00
41222;BME280;26952;42.884;23.918;2023-01-30T09:54:42;95962.75;;;1.53;100.00
41222;BME280;26952;42.884;23.918;2023-01-30T09:57:23;95960.31;;;1.95;100.00
41222;BME280;26952;42.884;23.918;2023-01-30T10:00:10;95961.63;;;2.34;100.00
41222;BME280;26952;42.884;23.918;2023-01-30T10:02:58;95952.81;;;2.57;100.00
41222;BME280;26952;42.884;23.918;2023-01-30T10:05:50;95953.38;;;2.60;98.63
41222;BME280;26952;42.884;23.918;2023-01-30T10:19:56;95911.97;;;3.40;93.22
41222;BME280;26952;42.884;23.918;2023-01-30T10:25:32;95898.91;;;3.08;92.08
41222;BME280;26952;42.884;23.918;2023-01-30T10:31:07;95864.25;;;3.06;89.17
41222;BME280;26952;42.884;23.918;2023-01-30T10:33:37;95880.13;;;2.62;91.17
41222;BME280;26952;42.884;23.918;2023-01-30T10:36:17;95879.66;;;2.57;91.13
41222;BME280;26952;42.884;23.918;2023-01-30T10:38:49;95862.75;;;2.72;93.63
41222;BME280;26952;42.884;23.918;2023-01-30T10:43:55;95859.97;;;3.05;91.19
41222;BME280;26952;42.884;23.918;2023-01-30T10:46:34;95859.41;;;2.70;91.75
41222;BME280;26952;42.884;23.918;2023-01-30T11:00:00;95820.28;;;2.59;96.21
41222;BME280;26952;42.884;23.918;2023-01-30T11:05:20;95804.00;;;2.35;94.21
41222;BME280;26952;42.884;23.918;2023-01-30T11:07:47;95769.13;;;2.25;94.80
41222;BME280;26952;42.884;23.918;2023-01-30T11:10:22;95787.72;;;2.63;95.71
41222;BME280;26952;42.884;23.918;2023-01-30T11:12:52;95781.03;;;2.70;92.50
41222;BME280;26952;42.884;23.918;2023-01-30T11:15:20;95780.06;;;2.71;91.01
41222;BME280;26952;42.884;23.918;2023-01-30T11:17:49;95767.03;;;2.92;92.64
41222;BME280;26952;42.884;23.918;2023-01-30T11:20:18;95763.72;;;2.69;89.12
41222;BME280;26952;42.884;23.918;2023-01-30T11:23:02;95751.38;;;2.80;88.94
41222;BME280;26952;42.884;23.918;2023-01-30T11:25:28;95751.38;;;2.80;87.35
41222;BME280;26952;42.884;23.918;2023-01-30T11:28:04;95762.81;;;2.59;91.07
41222;BME280;26952;42.884;23.918;2023-01-30T11:30:35;95756.44;;;2.52;91.33
41222;BME280;26952;42.884;23.918;2023-01-30T11:33:14;95762.78;;;2.38;93.11
41222;BME280;26952;42.884;23.918;2023-01-30T11:36:05;95751.13;;;2.42;97.18
41222;BME280;26952;42.884;23.918;2023-01-30T11:38:33;95740.94;;;2.39;95.27
41222;BME280;26952;42.884;23.918;2023-01-30T11:43:37;95731.75;;;2.24;95.52
41222;BME280;26952;42.884;23.918;2023-01-30T11:46:07;95733.63;;;2.54;96.96
41222;BME280;26952;42.884;23.918;2023-01-30T11:48:46;95726.31;;;2.68;95.38
41222;BME280;26952;42.884;23.918;2023-01-30T11:51:13;95711.16;;;2.62;91.50
41222;BME280;26952;42.884;23.918;2023-01-30T11:56:19;95689.22;;;2.33;93.06
41222;BME280;26952;42.884;23.918;2023-01-30T11:59:19;95703.03;;;2.45;93.19
41222;BME280;26952;42.884;23.918;2023-01-30T12:01:39;95690.63;;;2.17;92.88
41222;BME280;26952;42.884;23.918;2023-01-30T12:04:07;95693.72;;;2.11;95.25
41222;BME280;26952;42.884;23.918;2023-01-30T12:06:36;95688.94;;;2.16;93.42
41222;BME280;26952;42.884;23.918;2023-01-30T12:09:03;95668.50;;;2.21;93.54
41222;BME280;26952;42.884;23.918;2023-01-30T12:13:59;95660.94;;;2.18;93.46
41222;BME280;26952;42.884;23.918;2023-01-30T12:22:04;95655.09;;;2.46;96.91
41222;BME280;26952;42.884;23.918;2023-01-30T12:24:54;95649.69;;;2.38;96.72
41222;BME280;26952;42.884;23.918;2023-01-30T12:30:16;95662.03;;;2.36;99.01
41222;BME280;26952;42.884;23.918;2023-01-30T12:32:44;95634.69;;;1.78;96.62
41222;BME280;26952;42.884;23.918;2023-01-30T12:35:14;95639.56;;;1.72;97.55
41222;BME280;26952;42.884;23.918;2023-01-30T12:40:45;95645.84;;;1.69;99.11
41222;BME280;26952;42.884;23.918;2023-01-30T12:53:55;95611.06;;;2.21;95.88
41222;BME280;26952;42.884;23.918;2023-01-30T13:04:21;95621.34;;;2.33;97.21
41222;BME280;26952;42.884;23.918;2023-01-30T13:22:40;95604.28;;;2.90;88.88
41222;BME280;26952;42.884;23.918;2023-01-30T13:25:41;95590.78;;;2.84;85.89
41222;BME280;26952;42.884;23.918;2023-01-30T13:28:15;95583.94;;;2.63;87.69
41222;BME280;26952;42.884;23.918;2023-01-30T13:30:43;95581.88;;;2.57;86.98
41222;BME280;26952;42.884;23.918;2023-01-30T13:33:17;95582.38;;;2.21;86.92
41222;BME280;26952;42.884;23.918;2023-01-30T13:35:52;95583.25;;;2.31;88.27
41222;BME280;26952;42.884;23.918;2023-01-30T13:38:24;95565.13;;;2.09;85.33
41222;BME280;26952;42.884;23.918;2023-01-30T13:40:51;95587.31;;;2.24;88.43
41222;BME280;26952;42.884;23.918;2023-01-30T13:43:25;95568.50;;;2.00;86.84
41222;BME280;26952;42.884;23.918;2023-01-30T13:45:55;95564.25;;;1.99;86.14
41222;BME280;26952;42.884;23.918;2023-01-30T13:51:19;95573.34;;;2.04;92.67
41222;BME280;26952;42.884;23.918;2023-01-30T14:04:44;95523.81;;;2.14;91.16
41222;BME280;26952;42.884;23.918;2023-01-30T14:12:49;95551.47;;;1.96;96.84
41222;BME280;26952;42.884;23.918;2023-01-30T14:18:21;95548.97;;;1.94;99.69
41222;BME280;26952;42.884;23.918;2023-01-30T14:20:46;95544.91;;;1.81;100.00
41222;BME280;26952;42.884;23.918;2023-01-30T14:25:55;95547.38;;;1.30;100.00
41222;BME280;26952;42.884;23.918;2023-01-30T14:38:36;95545.28;;;0.92;100.00
41222;BME280;26952;42.884;23.918;2023-01-30T14:43:45;95557.53;;;0.26;100.00
41222;BME280;26952;42.884;23.918;2023-01-30T14:56:44;95545.28;;;-0.87;100.00
41222;BME280;26952;42.884;23.918;2023-01-30T15:02:27;95535.09;;;-1.01;100.00
41222;BME280;26952;42.884;23.918;2023-01-30T15:05:07;95542.53;;;-0.97;100.00
41222;BME280;26952;42.884;23.918;2023-01-30T15:07:42;95529.16;;;-1.03;100.00
41222;BME280;26952;42.884;23.918;2023-01-30T15:31:35;95505.28;;;-1.56;100.00
41222;BME280;26952;42.884;23.918;2023-01-30T15:34:01;95507.91;;;-1.68;100.00
41222;BME280;26952;42.884;23.918;2023-01-30T15:39:04;95520.72;;;-1.42;100.00
41222;BME280;26952;42.884;23.918;2023-01-30T15:41:36;95517.41;;;-1.44;100.00
41222;BME280;26952;42.884;23.918;2023-01-30T15:46:41;95530.44;;;-1.32;100.00
41222;BME280;26952;42.884;23.918;2023-01-30T15:51:46;95520.28;;;-1.35;100.00
41222;BME280;26952;42.884;23.918;2023-01-30T15:54:21;95509.94;;;-1.48;100.00
41222;BME280;26952;42.884;23.918;2023-01-30T15:56:48;95503.25;;;-1.63;100.00
41222;BME280;26952;42.884;23.918;2023-01-30T15:59:35;95514.44;;;-1.63;100.00
41222;BME280;26952;42.884;23.918;2023-01-30T16:02:12;95507.28;;;-1.59;100.00
41222;BME280;26952;42.884;23.918;2023-01-30T16:04:38;95506.50;;;-1.49;100.00
41222;BME280;26952;42.884;23.918;2023-01-30T16:07:23;95509.50;;;-1.66;100.00
41222;BME280;26952;42.884;23.918;2023-01-30T16:09:56;95508.19;;;-1.48;100.00
41222;BME280;26952;42.884;23.918;2023-01-30T16:12:26;95501.66;;;-1.53;100.00
41222;BME280;26952;42.884;23.918;2023-01-30T16:14:52;95502.50;;;-1.53;100.00
41222;BME280;26952;42.884;23.918;2023-01-30T16:17:27;95468.78;;;-1.65;100.00
41222;BME280;26952;42.884;23.918;2023-01-30T16:19:54;95481.28;;;-1.83;100.00